M I D A S
Marine Information and Data Acquisition System
Tripno 1018 of the Zeeleeuw from 2005-02-28 08:10:00 to 2005-02-28 16:05:00
Back to CruiseResearch ActivitiesStationsMapUnderway DataData graphs

EquipmentUnitsComment
TimeDGPSUTC
LatitudeDGPSDM.mWGS84
LongitudeDGPSDM.mWGS84
TemperatureSBE03/SBE38deg celciusITS90
ConductivitySBE21S/mITS90
SalinitySBE21 Practical Salinity Units
ChlorophylAChelsea fluorimeterg/lCalibrated in Aceton
Missing or incorrect values are displayed as -999
Sea surface data collected by the RV Zeeleeuw from 2005-02-28 08:10:00 to 2005-02-28 16:05:00
Time Latitude Longitude Temperature Conductivity Salinity ChlorophylA
2005-02-28 08:11:03 51°13.595 2°56.103 11.439 0.012455 0.071452 -0.882377
2005-02-28 08:12:03 51°13.604 2°56.075 11.2664 0.012455 0.071473 -0.882377
2005-02-28 08:13:03 51°13.633 2°55.975 11.3766 0.012455 0.071497 -0.882377
2005-02-28 08:14:03 51°13.685 2°55.854 11.4153 0.012351 0.07095 -0.882377
2005-02-28 08:15:03 51°13.741 2°55.739 11.3415 0.012455 0.071541 -0.916087
2005-02-28 08:16:03 51°13.76 2°55.685 11.3828 0.012351 0.070994 -0.882377
2005-02-28 08:17:03 51°13.759 2°55.669 11.5163 0.012351 0.071014 -0.882377
2005-02-28 08:18:03 51°13.809 2°55.651 11.2556 0.012351 0.071028 -0.882377
2005-02-28 08:19:03 51°13.93 2°55.564 10.9592 0.012351 0.071039 -0.848668
2005-02-28 08:20:02 51°14.078 2°55.456 11.0909 0.012351 0.071055 -0.848668
2005-02-28 08:21:02 51°14.228 2°55.311 11.3221 0.012351 0.071077 -0.848668
2005-02-28 08:22:02 51°14.35 2°55.09 11.0745 0.012351 0.071092 -0.882377
2005-02-28 08:23:03 51°14.438 2°54.803 11.2003 0.012351 0.071117 -0.882377
2005-02-28 08:24:03 51°14.454 2°54.462 3.5534 2.580094 25.429287 4.106614
2005-02-28 08:25:03 51°14.387 2°54.129 3.3506 2.65953 28.120748 1.814375
2005-02-28 08:26:02 51°14.268 2°53.819 3.4691 2.655218 28.187852 1.645828
2005-02-28 08:27:03 51°14.164 2°53.48 3.416 2.656795 28.15057 2.050341
2005-02-28 08:28:03 51°14.04 2°53.156 3.2978 2.679309 28.517925 1.915503
2005-02-28 08:29:03 51°13.918 2°52.821 3.3609 2.665528 28.383165 1.780665
2005-02-28 08:30:01 51°13.801 2°52.488 3.3935 2.619348 27.806073 1.881794
2005-02-28 08:31:02 51°13.681 2°52.144 3.2894 2.672997 28.508395 1.915503
2005-02-28 08:32:03 51°13.555 2°51.797 3.2742 2.665108 28.473214 1.814375
2005-02-28 08:33:03 51°13.434 2°51.453 3.2953 2.66858 28.526645 1.915503
2005-02-28 08:34:03 51°13.313 2°51.105 3.349 2.670894 28.513619 2.252597
2005-02-28 08:35:01 51°13.195 2°50.762 3.3026 2.67163 28.50179 2.555982
2005-02-28 08:36:01 51°13.074 2°50.412 3.2833 2.665949 28.479166 2.151469
2005-02-28 08:37:03 51°12.953 2°50.054 3.2495 2.660795 28.43354 1.814375
2005-02-28 08:38:02 51°12.834 2°49.715 3.1767 2.660375 28.477458 1.679537
2005-02-28 08:39:03 51°12.71 2°49.367 3.1505 2.653432 28.447777 1.5447
2005-02-28 08:40:03 51°12.586 2°49.026 3.1312 2.66027 28.555396 1.5447
2005-02-28 08:41:01 51°12.461 2°48.696 3.1765 2.672578 28.703167 1.51099
2005-02-28 08:42:03 51°12.329 2°48.346 3.1855 2.677102 28.719886 1.5447
2005-02-28 08:43:03 51°12.218 2°47.995 3.1899 2.675103 28.691513 1.578409
2005-02-28 08:44:01 51°12.131 2°47.636 3.1885 2.683729 28.79733 1.578409
2005-02-28 08:45:02 51°12.038 2°47.26 3.2155 2.685202 28.806721 1.578409
2005-02-28 08:46:01 51°11.949 2°46.896 3.1662 2.685518 28.809647 1.578409
2005-02-28 08:47:02 51°11.856 2°46.523 3.1766 2.682888 28.809797 1.51099
2005-02-28 08:48:03 51°11.763 2°46.143 3.1054 2.688253 28.877215 1.5447
2005-02-28 08:49:03 51°11.67 2°45.771 3.1815 2.685623 28.873418 1.409862
2005-02-28 08:50:02 51°11.578 2°45.405 3.1475 2.698142 28.978838 1.477281
2005-02-28 08:51:02 51°11.481 2°45.037 3.1664 2.695723 28.958283 1.51099
2005-02-28 08:52:03 51°11.387 2°44.663 3.159 2.696038 28.95799 1.51099
2005-02-28 08:53:03 51°11.293 2°44.299 3.2041 2.703403 29.046675 1.51099
2005-02-28 08:54:02 51°11.203 2°43.939 3.2309 2.713081 29.140923 1.5447
2005-02-28 08:55:03 51°11.107 2°43.565 3.2775 2.723286 29.222666 1.578409
2005-02-28 08:56:02 51°11.015 2°43.198 3.2758 2.728126 29.246598 1.578409
2005-02-28 08:57:01 51°10.924 2°42.832 3.257 2.730125 29.276682 1.612118
2005-02-28 08:58:03 51°10.83 2°42.457 3.2226 2.728968 29.292232 1.477281
2005-02-28 08:59:02 51°10.754 2°42.093 3.22 2.731177 29.332989 1.51099
2005-02-28 09:00:01 51°10.716 2°41.705 3.2486 2.735175 29.371308 1.443571
2005-02-28 09:01:01 51°10.669 2°41.313 3.2707 2.737279 29.368493 1.477281
2005-02-28 09:02:03 51°10.614 2°40.912 3.2896 2.74033 29.399656 1.443571
2005-02-28 09:03:02 51°10.56 2°40.531 3.2424 2.741909 29.418302 1.443571
2005-02-28 09:04:03 51°10.502 2°40.301 3.0782 2.728337 29.312412 1.275024
2005-02-28 09:05:03 51°10.449 2°40.179 3.0307 2.716134 29.301511 0.97164
2005-02-28 09:06:02 51°10.408 2°39.998 3.0558 2.713819 29.294455 0.93793
2005-02-28 09:07:03 51°10.357 2°39.661 3.0814 2.720132 29.343266 1.106477
2005-02-28 09:08:03 51°10.303 2°39.294 3.1564 2.723498 29.360326 1.207606
2005-02-28 09:09:03 51°10.247 2°38.923 3.1657 2.726338 29.359682 1.241315
2005-02-28 09:10:01 51°10.196 2°38.568 3.3004 2.737806 29.423634 1.308734
2005-02-28 09:11:01 51°10.141 2°38.193 3.2902 2.753272 29.520701 1.308734
2005-02-28 09:12:03 51°10.09 2°37.808 3.1684 2.743171 29.450356 1.308734
2005-02-28 09:13:03 51°10.039 2°37.431 3.1425 2.727495 29.346452 1.207606
2005-02-28 09:14:03 51°9.992 2°37.051 3.1089 2.720762 29.303364 1.241315
2005-02-28 09:15:02 51°9.965 2°36.67 3.111 2.71687 29.25884 1.308734
2005-02-28 09:16:03 51°9.984 2°36.281 3.1085 2.716028 29.230957 1.308734
2005-02-28 09:17:03 51°10.068 2°35.931 3.0997 2.704876 29.129668 1.409862
2005-02-28 09:18:03 51°10.224 2°35.675 3.099 2.707401 29.148233 1.308734
2005-02-28 09:19:01 51°10.423 2°35.612 3.3377 2.70719 29.141682 1.241315
2005-02-28 09:20:03 51°10.608 2°35.752 3.459 2.769895 29.643272 1.578409
2005-02-28 09:21:03 51°10.777 2°35.933 3.5123 2.794201 29.859952 1.51099
2005-02-28 09:22:02 51°10.942 2°36.119 3.5455 2.806828 29.962498 1.612118
2005-02-28 09:23:03 51°11.108 2°36.314 3.5943 2.811773 29.991836 1.881794
2005-02-28 09:24:03 51°11.27 2°36.505 3.5887 2.816824 30.01496 1.814375
2005-02-28 09:25:03 51°11.433 2°36.691 3.5982 2.817035 30.014962 2.016631
2005-02-28 09:26:02 51°11.594 2°36.87 3.581 2.813562 29.986517 1.679537
2005-02-28 09:27:03 51°11.757 2°37.057 3.564 2.78694 29.678048 1.645828
2005-02-28 09:28:03 51°11.92 2°37.24 3.5825 2.787045 29.687429 1.679537
2005-02-28 09:29:03 51°12.083 2°37.418 3.6081 2.794726 29.752287 1.949212
2005-02-28 09:30:03 51°12.245 2°37.6 3.5779 2.806406 29.900011 1.848084
2005-02-28 09:31:03 51°12.407 2°37.782 3.5589 2.806301 29.902877 1.881794
2005-02-28 09:32:03 51°12.569 2°37.964 3.5526 2.799777 29.844287 1.713247
2005-02-28 09:33:01 51°12.727 2°38.142 3.5644 2.799462 29.845495 1.746956
2005-02-28 09:34:03 51°12.896 2°38.324 3.5603 2.801777 29.856298 2.454853
2005-02-28 09:35:03 51°13.07 2°38.481 3.5543 2.796095 29.814124 2.488563
2005-02-28 09:36:03 51°13.245 2°38.634 3.5761 2.794832 29.775569 2.353725
2005-02-28 09:37:03 51°13.419 2°38.788 3.5468 2.792517 29.751659 2.320016
2005-02-28 09:38:01 51°13.595 2°38.912 3.5622 2.794411 29.782071 2.690819
2005-02-28 09:39:02 51°13.797 2°38.997 3.5927 2.798094 29.807324 2.488563
2005-02-28 09:40:03 51°14 2°39.052 3.6333 2.799567 29.809896 2.353725
2005-02-28 09:41:03 51°14.205 2°39.049 3.6234 2.809142 29.884589 2.555982
2005-02-28 09:42:03 51°14.399 2°38.889 3.6024 2.802829 29.834268 1.848084
2005-02-28 09:43:03 51°14.551 2°38.639 3.5715 2.79641 29.771222 1.51099
2005-02-28 09:44:03 51°14.512 2°38.271 3.5361 2.788939 29.722714 0.870512
2005-02-28 09:45:03 51°14.403 2°37.923 3.532 2.791254 29.759707 0.803093
2005-02-28 09:46:03 51°14.291 2°37.572 3.6036 2.801145 29.864457 0.769383
2005-02-28 09:47:03 51°14.183 2°37.217 3.6037 2.81272 29.961009 0.904221
2005-02-28 09:48:03 51°14.062 2°36.871 3.6366 2.814719 29.975443 1.106477
2005-02-28 09:49:03 51°13.943 2°36.524 3.6115 2.817245 29.981256 1.51099
2005-02-28 09:50:03 51°13.818 2°36.183 3.6237 2.815877 29.981634 1.409862
2005-02-28 09:51:03 51°13.692 2°35.841 3.6021 2.814614 29.965172 1.5447
2005-02-28 09:52:03 51°13.568 2°35.498 3.6168 2.812404 29.957303 1.275024
2005-02-28 09:53:03 51°13.441 2°35.159 3.6435 2.81735 29.993171 1.949212
2005-02-28 09:54:03 51°13.309 2°34.825 3.6573 2.821243 30.014194 2.454853
2005-02-28 09:55:03 51°13.172 2°34.496 3.6698 2.821769 30.010505 2.454853
2005-02-28 09:56:03 51°13.034 2°34.17 3.6887 2.823874 30.022035 2.825657
2005-02-28 09:57:03 51°12.896 2°33.847 3.6985 2.825452 30.027394 3.027913
2005-02-28 09:58:03 51°12.759 2°33.52 3.7255 2.830714 30.068493 2.758238
2005-02-28 09:59:03 51°12.622 2°33.197 3.739 2.832923 30.071369 2.555982
2005-02-28 10:00:03 51°12.483 2°32.877 3.7607 2.835554 30.093944 2.522272
2005-02-28 10:01:03 51°12.356 2°32.548 3.8127 2.840289 30.119771 2.488563
2005-02-28 10:02:03 51°12.265 2°32.19 3.8409 2.850918 30.201267 2.724529
2005-02-28 10:03:03 51°12.204 2°31.814 3.8503 2.8566 30.252016 2.724529
2005-02-28 10:04:03 51°12.142 2°31.434 3.8613 2.859231 30.264631 2.320016
2005-02-28 10:05:01 51°12.066 2°31.071 3.8754 2.862283 30.300261 2.050341
2005-02-28 10:06:03 51°11.979 2°30.691 3.8794 2.866072 30.335427 1.814375
2005-02-28 10:07:03 51°11.89 2°30.319 3.8902 2.867966 30.350118 1.713247
2005-02-28 10:08:03 51°11.802 2°29.946 3.9105 2.87007 30.362311 1.612118
2005-02-28 10:09:03 51°11.714 2°29.569 3.9514 2.873648 30.378487 1.376153
2005-02-28 10:10:01 51°11.628 2°29.199 3.949 2.877121 30.394244 1.173896
2005-02-28 10:11:03 51°11.541 2°28.808 3.9334 2.877332 30.401643 1.241315
2005-02-28 10:12:03 51°11.457 2°28.422 3.945 2.879121 30.427449 1.173896
2005-02-28 10:13:03 51°11.375 2°28.034 3.9449 2.884699 30.483392 1.275024
2005-02-28 10:14:02 51°11.293 2°27.652 3.9169 2.884804 30.492061 1.275024
2005-02-28 10:15:03 51°11.213 2°27.261 3.9166 2.880805 30.467744 1.173896
2005-02-28 10:16:03 51°11.199 2°26.861 3.9839 2.889224 30.544441 1.308734
2005-02-28 10:17:03 51°11.165 2°26.465 3.9934 2.903221 30.657873 1.376153
2005-02-28 10:18:03 51°11.127 2°26.073 3.993 2.904063 30.662702 1.308734
2005-02-28 10:19:03 51°11.1 2°25.689 4.0155 2.908273 30.710929 1.241315
2005-02-28 10:20:03 51°11.15 2°25.322 4.0453 2.912378 30.744618 1.207606
2005-02-28 10:21:03 51°11.322 2°25.153 4.1942 2.927428 30.832434 1.241315
2005-02-28 10:22:01 51°11.503 2°25.273 4.2508 2.953846 31.045974 1.173896
2005-02-28 10:23:01 51°11.667 2°25.455 4.2788 2.959108 31.051946 1.376153
2005-02-28 10:24:02 51°11.825 2°25.657 4.2779 2.961003 31.054729 1.376153
2005-02-28 10:25:02 51°11.977 2°25.863 4.2756 2.959845 31.04715 1.275024
2005-02-28 10:26:03 51°12.133 2°26.066 4.2767 2.958055 31.027256 1.173896
2005-02-28 10:27:03 51°12.295 2°26.252 4.2808 2.956792 31.009297 1.106477
2005-02-28 10:28:03 51°12.459 2°26.434 4.2646 2.955319 30.991401 1.140187
2005-02-28 10:29:03 51°12.619 2°26.626 4.2761 2.952056 30.961095 1.140187
2005-02-28 10:30:02 51°12.777 2°26.816 4.2519 2.949214 30.935657 1.173896
2005-02-28 10:31:03 51°12.938 2°27.007 4.2333 2.944057 30.895003 1.241315
2005-02-28 10:32:03 51°13.096 2°27.194 4.2213 2.939952 30.865686 1.173896
2005-02-28 10:33:03 51°13.256 2°27.381 4.2147 2.937005 30.840647 1.275024
2005-02-28 10:34:03 51°13.416 2°27.57 4.201 2.9369 30.841914 1.140187
2005-02-28 10:35:02 51°13.574 2°27.757 4.1829 2.9349 30.831165 1.241315
2005-02-28 10:36:03 51°13.733 2°27.948 4.1843 2.932479 30.816355 1.072768
2005-02-28 10:37:03 51°13.892 2°28.135 4.1826 2.931953 30.808592 1.005349
2005-02-28 10:38:03 51°14.052 2°28.323 4.1715 2.93069 30.800572 0.97164
2005-02-28 10:39:03 51°14.211 2°28.512 4.1777 2.928901 30.785614 1.039059
2005-02-28 10:40:03 51°14.369 2°28.702 4.1932 2.9309 30.798869 1.039059
2005-02-28 10:41:03 51°14.531 2°28.888 4.165 2.931953 30.802789 0.97164
2005-02-28 10:42:03 51°14.685 2°29.094 4.1603 2.919744 30.685175 0.97164
2005-02-28 10:43:03 51°14.837 2°29.296 4.1347 2.912692 30.614932 0.97164
2005-02-28 10:44:03 51°14.992 2°29.496 4.137 2.906588 30.558123 1.039059
2005-02-28 10:45:03 51°15.139 2°29.71 4.119 2.904588 30.539862 1.005349
2005-02-28 10:46:03 51°15.286 2°29.926 4.1085 2.902273 30.526162 1.072768
2005-02-28 10:47:03 51°15.432 2°30.144 4.1054 2.898589 30.48999 1.039059
2005-02-28 10:48:03 51°15.576 2°30.363 4.0897 2.896379 30.474202 1.005349
2005-02-28 10:49:02 51°15.722 2°30.579 4.1107 2.893959 30.446101 1.072768
2005-02-28 10:50:03 51°15.869 2°30.798 4.1275 2.895537 30.451282 1.072768
2005-02-28 10:51:03 51°16.012 2°31.018 4.1538 2.899747 30.484517 1.072768
2005-02-28 10:52:03 51°16.156 2°31.236 4.1646 2.904167 30.511129 1.072768
2005-02-28 10:53:03 51°16.299 2°31.456 4.1581 2.903641 30.5001 0.97164
2005-02-28 10:54:03 51°16.445 2°31.675 4.1547 2.903325 30.499725 0.93793
2005-02-28 10:55:02 51°16.589 2°31.892 4.1665 2.902483 30.49325 0.97164
2005-02-28 10:56:03 51°16.733 2°32.112 4.169 2.902167 30.478918 1.140187
2005-02-28 10:57:02 51°16.874 2°32.328 4.1656 2.901641 30.474461 1.173896
2005-02-28 10:58:03 51°17.015 2°32.547 4.1667 2.90322 30.493578 1.241315
2005-02-28 10:59:03 51°17.162 2°32.755 4.1662 2.907009 30.534209 1.308734
2005-02-28 11:00:03 51°17.311 2°32.962 4.1635 2.910166 30.572456 1.5447
2005-02-28 11:01:03 51°17.459 2°33.169 4.1665 2.910692 30.581851 1.443571
2005-02-28 11:02:03 51°17.608 2°33.375 4.1842 2.91185 30.58704 1.409862
2005-02-28 11:03:03 51°17.755 2°33.579 4.1936 2.91406 30.601131 1.308734
2005-02-28 11:04:02 51°17.898 2°33.779 4.199 2.915323 30.608357 1.140187
2005-02-28 11:05:02 51°18.043 2°33.981 4.1839 2.914165 30.594942 0.97164
2005-02-28 11:06:03 51°18.194 2°34.178 4.188 2.914481 30.606011 1.005349
2005-02-28 11:07:03 51°18.345 2°34.375 4.1734 2.91806 30.645839 1.342443
2005-02-28 11:08:03 51°18.495 2°34.574 4.1899 2.916902 30.63984 1.578409
2005-02-28 11:09:03 51°18.643 2°34.776 4.2024 2.917112 30.635684 1.713247
2005-02-28 11:10:03 51°18.723 2°35.056 4.2093 2.919428 30.646033 1.982922
2005-02-28 11:11:01 51°18.751 2°35.358 4.2204 2.920901 30.658983 2.185178
2005-02-28 11:12:03 51°18.73 2°35.686 4.2272 2.923953 30.683622 2.353725
2005-02-28 11:13:03 51°18.708 2°36.007 4.2411 2.926058 30.69563 2.353725
2005-02-28 11:14:03 51°18.676 2°36.322 4.1998 2.929005 30.721505 2.252597
2005-02-28 11:15:03 51°18.647 2°36.637 4.124 2.906693 30.522332 1.072768
2005-02-28 11:16:03 51°18.619 2°36.949 4.1041 2.888275 30.368669 0.735674
2005-02-28 11:17:03 51°18.591 2°37.263 4.09 2.877541 30.257231 0.634546
2005-02-28 11:18:03 51°18.575 2°37.576 4.0871 2.872805 30.207195 0.634546
2005-02-28 11:19:03 51°18.655 2°37.85 4.1204 2.869963 30.180756 0.499708
2005-02-28 11:20:03 51°18.834 2°37.917 4.1863 2.875646 30.1929 0.230033
2005-02-28 11:21:03 51°19.035 2°37.858 4.1496 2.881223 30.225754 0.230033
2005-02-28 11:22:03 51°19.239 2°37.809 4.1317 2.876488 30.209976 0.39858
2005-02-28 11:23:03 51°19.445 2°37.787 4.1196 2.877961 30.241716 0.533418
2005-02-28 11:24:03 51°19.65 2°37.77 4.1063 2.878698 30.260046 0.499708
2005-02-28 11:25:02 51°19.854 2°37.754 4.1405 2.88175 30.292988 0.465999
2005-02-28 11:26:03 51°20.063 2°37.733 4.2308 2.903115 30.495643 0.39858
2005-02-28 11:27:03 51°20.268 2°37.712 4.3156 2.930058 30.718015 0.533418
2005-02-28 11:28:03 51°20.472 2°37.691 4.3537 2.949003 30.873556 0.533418
2005-02-28 11:29:03 51°20.676 2°37.671 4.4033 2.955002 30.910628 0.465999
2005-02-28 11:30:03 51°20.879 2°37.647 4.4478 2.968475 31.009883 0.465999
2005-02-28 11:31:03 51°21.084 2°37.619 4.4616 2.974053 31.050209 0.567127
2005-02-28 11:32:03 51°21.288 2°37.594 4.4809 2.973843 31.031221 0.331161
2005-02-28 11:33:03 51°21.492 2°37.568 4.48 2.975211 31.035405 0.331161
2005-02-28 11:34:03 51°21.7 2°37.537 4.4927 2.975737 31.041469 0.364871
2005-02-28 11:35:03 51°21.909 2°37.506 4.4922 2.969 30.950663 0.162614
2005-02-28 11:36:03 51°22.116 2°37.518 4.4883 2.969 30.947365 0.162614
2005-02-28 11:37:03 51°22.32 2°37.542 4.4929 2.970369 30.959818 0.061486
2005-02-28 11:38:03 51°22.527 2°37.563 4.5027 2.970579 30.964716 0.128905
2005-02-28 11:39:03 51°22.724 2°37.635 4.5045 2.970263 30.953659 0.027777
2005-02-28 11:40:03 51°22.875 2°37.835 4.5045 2.969 30.94077 0.095195
2005-02-28 11:41:03 51°23.004 2°38.07 4.5173 2.971105 30.960877 0.128905
2005-02-28 11:42:03 51°23.134 2°38.302 4.5368 2.977421 31.017879 0.027777
2005-02-28 11:43:03 51°23.266 2°38.533 4.5679 2.987526 31.111825 -0.005933
2005-02-28 11:44:03 51°23.387 2°38.778 4.6201 3.006579 31.297812 0.095195
2005-02-28 11:45:03 51°23.505 2°39.029 4.6304 3.034159 31.574996 0.668255
2005-02-28 11:46:03 51°23.626 2°39.281 4.6286 3.034896 31.579282 0.803093
2005-02-28 11:47:03 51°23.744 2°39.536 4.6233 3.035633 31.583569 1.005349
2005-02-28 11:48:03 51°23.865 2°39.789 4.6222 3.03437 31.578255 0.97164
2005-02-28 11:49:03 51°23.983 2°40.047 4.6195 3.033106 31.567075 0.97164
2005-02-28 11:50:03 51°24.104 2°40.297 4.6306 3.033317 31.568659 1.039059
2005-02-28 11:51:03 51°24.224 2°40.547 4.6151 3.029527 31.52172 0.803093
2005-02-28 11:52:03 51°24.343 2°40.796 4.6163 3.02479 31.471423 0.701965
2005-02-28 11:53:03 51°24.461 2°41.045 4.6185 3.025316 31.477476 0.634546
2005-02-28 11:54:03 51°24.582 2°41.292 4.6145 3.023527 31.462742 0.701965
2005-02-28 11:55:03 51°24.702 2°41.537 4.6027 3.019105 31.415234 0.567127
2005-02-28 11:56:03 51°24.822 2°41.784 4.5922 3.015737 31.388999 0.600836
2005-02-28 11:57:03 51°24.943 2°42.028 4.5894 3.012789 31.356764 0.533418
2005-02-28 11:58:03 51°25.075 2°42.252 4.5814 3.010263 31.336031 0.499708
2005-02-28 11:59:03 51°25.209 2°42.476 4.5845 3.009947 31.337394 0.533418
2005-02-28 12:00:03 51°25.344 2°42.7 4.6031 3.010789 31.334594 0.533418
2005-02-28 12:01:03 51°25.48 2°42.924 4.6156 3.011421 31.33104 0.600836
2005-02-28 12:02:03 51°25.617 2°43.148 4.6251 3.011842 31.322576 0.499708
2005-02-28 12:03:03 51°25.752 2°43.372 4.6277 3.012473 31.327341 0.533418
2005-02-28 12:04:03 51°25.885 2°43.596 4.6475 3.014052 31.33634 0.499708
2005-02-28 12:05:03 51°25.981 2°43.87 4.6411 3.017842 31.367403 0.634546
2005-02-28 12:06:03 51°26.068 2°44.154 4.6501 3.018684 31.373749 0.701965
2005-02-28 12:07:03 51°26.172 2°44.421 4.666 2.980578 30.933198 0.701965
2005-02-28 12:08:03 51°26.279 2°44.685 4.6682 2.982577 30.945462 0.701965
2005-02-28 12:09:03 51°26.386 2°44.954 4.6709 2.986472 30.98928 0.701965
2005-02-28 12:10:03 51°26.495 2°45.22 4.6615 3.02321 31.411588 0.769383
2005-02-28 12:11:03 51°26.603 2°45.488 4.6547 3.022684 31.410538 0.769383
2005-02-28 12:12:03 51°26.714 2°45.752 4.6722 3.022473 31.398966 0.668255
2005-02-28 12:13:03 51°26.823 2°46.017 4.6713 3.018473 31.349721 0.465999
2005-02-28 12:14:03 51°26.933 2°46.285 4.6753 3.014789 31.306607 0.364871
2005-02-28 12:15:03 51°27.045 2°46.552 4.676 3.019736 31.365051 0.465999
2005-02-28 12:16:02 51°27.126 2°46.842 4.6789 3.019947 31.358329 0.465999
2005-02-28 12:17:03 51°27.203 2°47.147 4.6835 3.022052 31.380828 0.432289
2005-02-28 12:18:03 51°27.283 2°47.444 4.6824 3.023421 31.391546 0.39858
2005-02-28 12:19:03 51°27.364 2°47.741 4.683 3.020578 31.359763 0.39858
2005-02-28 12:20:03 51°27.443 2°48.041 4.679 3.021526 31.368973 0.432289
2005-02-28 12:21:03 51°27.524 2°48.34 4.6792 3.020473 31.361047 0.600836
2005-02-28 12:22:03 51°27.61 2°48.634 4.6783 3.018262 31.339832 0.567127
2005-02-28 12:23:03 51°27.7 2°48.927 4.6742 3.016999 31.327827 0.533418
2005-02-28 12:24:03 51°27.787 2°49.22 4.6689 3.017631 31.335904 0.567127
2005-02-28 12:25:03 51°27.874 2°49.514 4.6628 3.017842 31.345793 0.634546
2005-02-28 12:26:03 51°27.963 2°49.81 4.6693 3.019315 31.360218 0.668255
2005-02-28 12:27:03 51°28.031 2°50.117 4.6891 3.020263 31.369431 0.634546
2005-02-28 12:28:03 51°27.948 2°50.427 4.6818 3.014367 31.291828 0.634546
2005-02-28 12:29:02 51°27.785 2°50.657 4.6907 3.020263 31.35531 0.668255
2005-02-28 12:30:03 51°27.571 2°50.787 4.7143 3.019104 31.33041 0.668255
2005-02-28 12:31:03 51°27.344 2°50.86 4.7 3.018157 31.307944 0.668255
2005-02-28 12:32:03 51°27.131 2°50.72 4.6951 3.017736 31.308087 0.93793
2005-02-28 12:33:03 51°26.998 2°50.413 4.6699 3.014789 31.298316 1.275024
2005-02-28 12:34:03 51°26.879 2°50.085 4.674 3.011736 31.273235 1.443571
2005-02-28 12:35:03 51°26.771 2°49.752 4.6692 3.010894 31.264401 1.443571
2005-02-28 12:36:03 51°26.671 2°49.406 4.6695 3.009525 31.251184 1.241315
2005-02-28 12:37:03 51°26.577 2°49.061 4.6689 3.008157 31.237137 1.241315
2005-02-28 12:38:03 51°26.481 2°48.715 4.6628 3.007209 31.227094 1.072768
2005-02-28 12:39:03 51°26.411 2°48.453 4.6523 3.006367 31.216605 1.072768
2005-02-28 12:40:03 51°26.357 2°48.31 4.6459 3.00542 31.223938 1.039059
2005-02-28 12:41:03 51°26.316 2°48.198 4.6479 3.005946 31.225012 0.803093
2005-02-28 12:42:03 51°26.239 2°47.997 4.6701 3.006052 31.223737 0.701965
2005-02-28 12:43:03 51°26.152 2°47.723 4.6581 3.005841 31.215529 0.836802
2005-02-28 12:44:03 51°26.079 2°47.574 4.6535 3.005104 31.207901 0.803093
2005-02-28 12:45:03 51°26.015 2°47.511 4.653 3.00542 31.214834 0.668255
2005-02-28 12:46:03 51°25.963 2°47.487 4.6441 3.005104 31.217002 0.668255
2005-02-28 12:47:03 51°25.92 2°47.486 4.6393 3.006262 31.236089 0.769383
2005-02-28 12:48:03 51°25.886 2°47.494 4.6446 3.00721 31.244481 1.005349
2005-02-28 12:49:03 51°25.858 2°47.506 4.6419 3.006894 31.239199 0.93793
2005-02-28 12:50:03 51°25.833 2°47.518 4.642 3.00742 31.245241 1.005349
2005-02-28 12:51:03 51°25.812 2°47.531 4.6381 3.007946 31.252941 1.072768
2005-02-28 12:52:03 51°25.782 2°47.55 4.6483 3.008999 31.265855 1.173896
2005-02-28 12:53:03 51°25.709 2°47.521 4.6353 3.007736 31.254667 1.241315
2005-02-28 12:54:02 51°25.646 2°47.327 4.6348 3.005525 31.233427 1.039059
2005-02-28 12:55:03 51°25.603 2°47.02 4.6349 3.00542 31.235532 1.005349
2005-02-28 12:56:03 51°25.555 2°46.679 4.6287 3.006052 31.241128 1.005349
2005-02-28 12:57:03 51°25.492 2°46.439 4.6089 3.005947 31.249036 1.005349
2005-02-28 12:58:03 51°25.445 2°46.301 4.6092 3.006052 31.251904 0.769383
2005-02-28 12:59:03 51°25.416 2°46.082 4.6173 3.005631 31.261168 0.93793
2005-02-28 13:00:03 51°25.375 2°45.749 4.6209 3.006052 31.258539 0.870512
2005-02-28 13:01:03 51°25.265 2°45.444 4.6347 3.007631 31.275852 0.93793
2005-02-28 13:02:03 51°25.082 2°45.233 4.6364 3.008999 31.277466 0.735674
2005-02-28 13:03:03 51°24.861 2°45.131 4.6379 3.009736 31.272657 0.735674
2005-02-28 13:04:03 51°24.632 2°45.082 4.5987 3.007736 31.262128 0.803093
2005-02-28 13:05:03 51°24.404 2°45.094 4.574 3.000578 31.228806 1.140187
2005-02-28 13:06:03 51°24.189 2°45.224 4.5642 2.997631 31.197403 0.904221
2005-02-28 13:07:01 51°24.096 2°45.524 4.5705 2.992894 31.158673 0.803093
2005-02-28 13:08:03 51°24.112 2°45.908 4.5977 2.990368 31.102334 0.701965
2005-02-28 13:09:03 51°24.123 2°46.282 4.5903 2.988473 31.064064 1.173896
2005-02-28 13:10:03 51°24.126 2°46.657 4.6133 2.985525 31.034342 1.207606
2005-02-28 13:11:03 51°24.13 2°47.032 4.5968 2.980473 30.973043 1.106477
2005-02-28 13:12:03 51°24.129 2°47.407 4.5978 2.978789 30.960287 1.275024
2005-02-28 13:13:03 51°24.131 2°47.784 4.6053 2.978578 30.950474 1.275024
2005-02-28 13:14:03 51°24.133 2°48.162 4.5818 2.976578 30.935733 1.275024
2005-02-28 13:15:03 51°24.134 2°48.544 4.5426 2.972894 30.916431 1.342443
2005-02-28 13:16:03 51°24.134 2°48.926 4.5361 2.970473 30.914092 1.443571
2005-02-28 13:17:03 51°24.131 2°49.309 4.5414 2.969105 30.912341 1.477281
2005-02-28 13:18:03 51°24.108 2°49.686 4.546 2.970789 30.918544 1.578409
2005-02-28 13:19:03 51°24.062 2°50.062 4.5533 2.972263 30.932192 1.5447
2005-02-28 13:20:03 51°23.998 2°50.426 4.5664 2.972789 30.933306 1.477281
2005-02-28 13:21:03 51°23.872 2°50.749 4.5648 2.972158 30.926048 1.578409
2005-02-28 13:22:03 51°23.668 2°50.817 4.5657 2.973315 30.917981 1.578409
2005-02-28 13:23:03 51°23.48 2°50.635 4.5492 2.967947 30.885058 1.443571
2005-02-28 13:24:03 51°23.315 2°50.402 4.5031 2.965316 30.861384 1.5447
2005-02-28 13:25:03 51°23.154 2°50.164 4.5017 2.962263 30.852567 1.645828
2005-02-28 13:26:03 51°22.994 2°49.927 4.4888 2.960158 30.841494 1.578409
2005-02-28 13:27:03 51°22.825 2°49.711 4.4728 2.957317 30.812082 1.578409
2005-02-28 13:28:03 51°22.622 2°49.576 4.4639 2.954159 30.783136 1.409862
2005-02-28 13:29:03 51°22.418 2°49.443 4.4318 2.948686 30.748028 1.645828
2005-02-28 13:30:03 51°22.216 2°49.311 4.4174 2.94416 30.713947 1.645828
2005-02-28 13:31:03 51°22.016 2°49.183 4.3831 2.939003 30.675021 1.645828
2005-02-28 13:32:03 51°21.815 2°49.056 4.3417 2.932898 30.638241 1.645828
2005-02-28 13:33:03 51°21.617 2°48.928 4.3141 2.925741 30.58762 1.578409
2005-02-28 13:34:03 51°21.418 2°48.806 4.3071 2.919427 30.540919 1.612118
2005-02-28 13:35:03 51°21.219 2°48.684 4.3147 2.91648 30.506078 1.477281
2005-02-28 13:36:03 51°21.021 2°48.562 4.2781 2.911638 30.463253 1.376153
2005-02-28 13:37:03 51°20.824 2°48.441 4.2645 2.908165 30.43784 1.342443
2005-02-28 13:38:03 51°20.629 2°48.315 4.2278 2.903745 30.413706 1.308734
2005-02-28 13:39:03 51°20.44 2°48.162 4.2764 2.901219 30.399202 1.477281
2005-02-28 13:40:03 51°20.257 2°47.998 4.2451 2.90385 30.405944 1.241315
2005-02-28 13:41:03 51°20.076 2°47.833 4.2931 2.901219 30.386961 1.275024
2005-02-28 13:42:03 51°19.903 2°47.656 4.2552 2.904903 30.397713 1.207606
2005-02-28 13:43:03 51°19.731 2°47.48 4.2451 2.901851 30.383656 1.275024
2005-02-28 13:44:03 51°19.562 2°47.306 4.2389 2.896904 30.341168 1.275024
2005-02-28 13:45:03 51°19.399 2°47.12 4.1935 2.891326 30.295423 1.342443
2005-02-28 13:46:03 51°19.236 2°46.933 4.1688 2.884591 30.246011 1.443571
2005-02-28 13:47:03 51°19.075 2°46.742 4.1803 2.881013 30.214374 1.376153
2005-02-28 13:48:03 51°18.912 2°46.558 4.1635 2.878697 30.183529 1.477281
2005-02-28 13:49:03 51°18.75 2°46.374 4.179 2.873015 30.136451 1.5447
2005-02-28 13:50:03 51°18.591 2°46.189 4.1263 2.869963 30.131149 1.5447
2005-02-28 13:51:03 51°18.432 2°46.003 4.1624 2.866911 30.111225 1.51099
2005-02-28 13:52:03 51°18.272 2°45.82 4.1915 2.871015 30.101164 1.51099
2005-02-28 13:53:03 51°18.114 2°45.637 4.1791 2.870383 30.090624 1.376153
2005-02-28 13:54:03 51°17.956 2°45.451 4.203 2.869226 30.060257 1.5447
2005-02-28 13:55:03 51°17.797 2°45.263 4.1364 2.865332 30.048388 1.51099
2005-02-28 13:56:03 51°17.639 2°45.072 4.1002 2.85765 29.995072 1.51099
2005-02-28 13:57:03 51°17.479 2°44.883 4.0548 2.852178 29.959187 1.5447
2005-02-28 13:58:03 51°17.32 2°44.69 4.0503 2.849547 29.96671 1.713247
2005-02-28 13:59:04 51°17.159 2°44.495 4.1083 2.851862 29.98384 1.881794
2005-02-28 14:00:03 51°17.001 2°44.302 4.102 2.856598 29.999869 1.443571
2005-02-28 14:01:03 51°16.836 2°44.118 4.0872 2.856914 30.010809 1.241315
2005-02-28 14:02:03 51°16.666 2°43.939 4.0744 2.855335 30.010331 1.376153
2005-02-28 14:03:03 51°16.49 2°43.774 4.0777 2.854704 30.012733 1.645828
2005-02-28 14:04:03 51°16.3 2°43.643 4.0952 2.852809 29.986724 1.443571
2005-02-28 14:05:03 51°16.101 2°43.559 4.0715 2.850179 29.96351 1.5447
2005-02-28 14:06:03 51°15.89 2°43.601 4.0319 2.844496 29.898449 1.308734
2005-02-28 14:07:04 51°15.699 2°43.794 3.9953 2.836498 29.834778 1.376153
2005-02-28 14:08:03 51°15.544 2°44.069 3.9116 2.825765 29.758603 2.454853
2005-02-28 14:09:03 51°15.434 2°44.416 3.9925 2.817452 29.70716 2.589691
2005-02-28 14:10:03 51°15.382 2°44.799 3.9497 2.823555 29.692753 1.612118
2005-02-28 14:11:03 51°15.361 2°45.203 4.015 2.818083 29.675868 1.612118
2005-02-28 14:12:03 51°15.336 2°45.607 3.9071 2.816189 29.665935 1.814375
2005-02-28 14:13:03 51°15.309 2°46.009 3.8128 2.799038 29.535693 1.51099
2005-02-28 14:14:02 51°15.303 2°46.413 3.7701 2.788516 29.500713 1.477281
2005-02-28 14:15:03 51°15.323 2°46.827 3.7501 2.789463 29.52221 1.342443
2005-02-28 14:16:03 51°15.338 2°47.239 3.7306 2.788622 29.533324 1.5447
2005-02-28 14:17:02 51°15.352 2°47.644 3.7521 2.789569 29.554856 2.387435
2005-02-28 14:18:03 51°15.362 2°48.05 3.714 2.789253 29.560044 3.533554
2005-02-28 14:19:03 51°15.373 2°48.452 3.6938 2.787044 29.567334 3.634683
2005-02-28 14:20:03 51°15.388 2°48.861 3.78 2.785886 29.507035 2.791947
2005-02-28 14:21:03 51°15.399 2°49.275 3.8125 2.77631 29.32492 1.848084
2005-02-28 14:22:03 51°15.413 2°49.69 3.779 2.772733 29.311213 1.443571
2005-02-28 14:23:03 51°15.425 2°50.103 3.8784 2.775468 29.33029 1.5447
2005-02-28 14:24:03 51°15.44 2°50.514 4.1333 2.784306 29.322249 1.275024
2005-02-28 14:25:03 51°15.438 2°50.921 3.9936 2.795668 29.291333 1.173896
2005-02-28 14:26:03 51°15.413 2°51.322 4.1721 2.779465 29.223303 -0.848668
2005-02-28 14:27:03 51°15.393 2°51.724 4.3693 2.778939 29.215627 -0.916087
2005-02-28 14:28:03 51°15.313 2°52.087 4.537 2.778518 29.209171 -0.882377
2005-02-28 14:29:03 51°15.215 2°52.369 4.6734 2.778308 29.202781 -0.916087
2005-02-28 14:30:03 51°15.115 2°52.635 4.8245 2.778413 29.190567 -0.882377
2005-02-28 14:31:03 51°15 2°52.944 4.9738 2.779044 29.163947 -0.916087
2005-02-28 14:32:03 51°14.882 2°53.254 5.1082 2.780201 29.153695 -0.882377
2005-02-28 14:33:03 51°14.764 2°53.557 5.2603 2.781779 29.158547 -0.882377
2005-02-28 14:34:03 51°14.666 2°53.882 5.3885 2.783883 29.16239 -0.916087
2005-02-28 14:35:03 51°14.577 2°54.228 5.525 2.786409 29.164014 -0.916087
2005-02-28 14:36:03 51°14.487 2°54.558 5.6597 2.789144 29.171205 -0.916087
2005-02-28 14:37:03 51°14.4 2°54.881 5.785 2.79209 29.181597 -0.916087
2005-02-28 14:38:03 51°14.311 2°55.156 5.911 2.795141 29.195544 -0.916087
2005-02-28 14:39:03 51°14.202 2°55.34 6.0389 2.798088 29.204346 -0.916087
2005-02-28 14:40:03 51°14.069 2°55.454 6.155 2.801139 29.216699 -0.916087
2005-02-28 14:41:03 51°13.932 2°55.558 6.2451 2.80419 29.225906 -0.916087
2005-02-28 14:42:03 51°13.805 2°55.659 6.3899 2.807241 29.231192 -0.882377
2005-02-28 14:43:04 51°13.712 2°55.79 6.4946 2.810293 29.238819 -0.882377
2005-02-28 14:44:03 51°13.656 2°55.918 6.5492 2.813134 29.244028 -0.916087
2005-02-28 14:45:03 51°13.616 2°56.035 6.7537 2.81608 29.252 -0.882377
2005-02-28 14:46:01 51°13.595 2°56.102 6.8868 2.818921 29.259541 -0.916087
2005-02-28 14:47:04 51°13.595 2°56.103 6.9546 2.821762 29.264736 -0.916087